createdAt,value
2023-02-24T00:03:21.743Z,100549.56
2023-02-24T00:08:23.864Z,100537.28
2023-02-24T00:13:26.170Z,100527.59
2023-02-24T00:18:29.586Z,100530.22
2023-02-24T00:23:31.692Z,100520.56
2023-02-24T00:28:34.156Z,100523.19
2023-02-24T00:33:37.877Z,100518.78
2023-02-24T00:38:40.909Z,100511.75
2023-02-24T00:43:44.008Z,100512.63
2023-02-24T00:48:49.568Z,100507.38
2023-02-24T00:53:53.133Z,100503.84
2023-02-24T00:58:56.427Z,100502.97
2023-02-24T01:04:00.998Z,100503.72
2023-02-24T01:09:03.100Z,100506.19
2023-02-24T01:14:06.727Z,100500.91
2023-02-24T01:19:10.683Z,100513.13
2023-02-24T01:24:13.193Z,100513.91
2023-02-24T01:29:15.320Z,100505.06
2023-02-24T01:34:19.282Z,100512.00
2023-02-24T01:39:21.165Z,100509.31
2023-02-24T01:45:00.759Z,100499.63
2023-02-24T01:50:05.390Z,100488.97
2023-02-24T01:55:10.927Z,100493.22
2023-02-24T02:00:15.668Z,100487.09
2023-02-24T02:05:19.423Z,100487.84
2023-02-24T02:10:21.271Z,100480.84
2023-02-24T02:15:23.847Z,100470.22
2023-02-24T02:20:52.889Z,100470.25
2023-02-24T02:26:28.646Z,100459.81
2023-02-24T02:31:55.702Z,100450.09
2023-02-24T02:37:05.400Z,100450.97
2023-02-24T02:42:16.400Z,100450.03
2023-02-24T02:47:26.682Z,100472.78
2023-02-24T02:52:36.164Z,100466.56
2023-02-24T02:57:43.298Z,100470.03
2023-02-24T03:02:49.852Z,100459.34
2023-02-24T03:07:55.704Z,100451.38
2023-02-24T03:13:00.907Z,100464.47
2023-02-24T03:18:07.871Z,100453.97
2023-02-24T03:23:15.293Z,100440.78
2023-02-24T03:28:22.525Z,100447.75
2023-02-24T03:33:31.373Z,100437.22
2023-02-24T03:38:35.114Z,100429.28
2023-02-24T03:49:22.998Z,100418.63
2023-02-24T03:54:45.088Z,100405.38
2023-02-24T04:00:14.714Z,100413.41
2023-02-24T04:05:21.899Z,100397.59
2023-02-24T04:10:31.904Z,100395.75
2023-02-24T04:15:41.361Z,100396.56
2023-02-24T04:20:46.179Z,100390.34
2023-02-24T04:25:52.174Z,100378.13
2023-02-24T04:30:58.982Z,100378.19
2023-02-24T04:36:01.221Z,100373.78
2023-02-24T04:41:05.082Z,100372.03
2023-02-24T04:46:07.137Z,100359.72
2023-02-24T04:51:09.228Z,100360.59
2023-02-24T04:56:12.806Z,100350.13
2023-02-24T05:01:14.882Z,100343.13
2023-02-24T05:06:17.927Z,100343.19
2023-02-24T05:11:21.688Z,100340.44
2023-02-24T05:16:24.220Z,100329.03
2023-02-24T05:21:26.657Z,100335.31
2023-02-24T05:26:30.182Z,100320.28
2023-02-24T05:31:32.438Z,100322.00
2023-02-24T05:36:38.041Z,100307.16
2023-02-24T05:41:43.310Z,100301.88
2023-02-24T05:46:46.189Z,100298.41
2023-02-24T05:51:48.335Z,100296.66
2023-02-24T05:56:52.202Z,100294.00
2023-02-24T06:01:54.573Z,100279.97
2023-02-24T06:06:56.945Z,100285.34
2023-02-24T06:12:00.540Z,100278.38
2023-02-24T06:17:02.499Z,100272.25
2023-02-24T06:22:04.901Z,100265.22
2023-02-24T06:27:08.640Z,100262.69
2023-02-24T06:32:10.978Z,100271.44
2023-02-24T06:37:15.417Z,100260.97
2023-02-24T06:42:18.932Z,100252.31
2023-02-24T06:47:21.038Z,100245.50
2023-02-24T06:52:22.736Z,100243.66
2023-02-24T06:57:26.359Z,100228.00
2023-02-24T07:02:28.458Z,100220.97
2023-02-24T07:07:30.752Z,100231.53
2023-02-24T07:12:34.256Z,100215.81
2023-02-24T07:17:36.462Z,100214.94
2023-02-24T07:22:39.495Z,100213.16
2023-02-24T07:27:42.634Z,100210.56
2023-02-24T07:32:44.998Z,100186.16
2023-02-24T07:37:47.470Z,100192.34
2023-02-24T07:42:53.798Z,100184.53
2023-02-24T07:47:56.228Z,100178.47
2023-02-24T07:52:58.711Z,100158.28
2023-02-24T07:58:02.011Z,100154.06
2023-02-24T08:03:04.227Z,100133.94
2023-02-24T08:08:06.455Z,100138.25
2023-02-24T08:13:10.313Z,100124.25
2023-02-24T08:18:12.752Z,100116.34
2023-02-24T08:23:15.154Z,100100.59
2023-02-24T08:28:18.809Z,100104.03
2023-02-24T08:33:22.583Z,100094.41
2023-02-24T08:38:26.527Z,100083.97
2023-02-24T08:43:32.371Z,100077.09
2023-02-24T08:48:36.341Z,100071.06
2023-02-24T08:53:39.626Z,100050.06
2023-02-24T08:58:44.745Z,100044.84
2023-02-24T09:03:48.578Z,100040.44
2023-02-24T09:08:51.345Z,100028.16
2023-02-24T09:13:54.904Z,100022.91
2023-02-24T09:18:57.044Z,100020.28
2023-02-24T09:23:59.779Z,100002.78
2023-02-24T09:29:03.313Z,99997.50
2023-02-24T09:34:05.572Z,99992.25
2023-02-24T09:39:08.442Z,99985.22
2023-02-24T09:44:17.193Z,99974.72
2023-02-24T09:49:23.118Z,99968.59
2023-02-24T09:54:30.184Z,99965.88
2023-02-24T09:59:43.656Z,99957.09
2023-02-24T10:05:00.728Z,99949.19
2023-02-24T10:10:08.015Z,99935.06
2023-02-24T10:15:15.618Z,99929.66
2023-02-24T10:20:20.608Z,99925.34
2023-02-24T10:25:30.974Z,99913.06
2023-02-24T10:30:45.304Z,99917.41
2023-02-24T10:35:47.817Z,99901.78
2023-02-24T10:40:53.978Z,99898.25
2023-02-24T10:46:00.037Z,99886.94
2023-02-24T10:51:09.465Z,99898.44
2023-02-24T10:56:14.902Z,99873.94
2023-02-24T11:07:21.672Z,99868.75
2023-02-24T11:12:25.439Z,99874.00
2023-02-24T11:17:28.920Z,99860.03
2023-02-24T11:22:34.163Z,99855.59
2023-02-24T11:27:36.573Z,99840.72
2023-02-24T11:32:53.830Z,99826.69
2023-02-24T11:38:04.284Z,99813.56
2023-02-24T11:43:11.997Z,99802.22
2023-02-24T11:48:20.156Z,99796.94
2023-02-24T11:53:44.088Z,99792.53
2023-02-24T11:58:54.256Z,99777.59
2023-02-24T12:04:10.072Z,99766.19
2023-02-24T12:15:10.818Z,99739.06
2023-02-24T12:20:23.577Z,99725.97
2023-02-24T12:25:29.692Z,99708.56
2023-02-24T12:30:46.001Z,99706.81
2023-02-24T12:36:01.381Z,99703.34
2023-02-24T12:41:19.538Z,99683.22
2023-02-24T12:46:26.617Z,99682.38
2023-02-24T12:51:35.631Z,99670.97
2023-02-24T12:56:47.049Z,99657.03
2023-02-24T13:01:57.450Z,99649.16
2023-02-24T13:07:17.852Z,99640.41
2023-02-24T13:12:26.602Z,99629.00
2023-02-24T13:17:47.192Z,99625.53
2023-02-24T13:28:33.450Z,99601.97
2023-02-24T13:33:37.910Z,99588.03
2023-02-24T13:38:43.680Z,99570.56
2023-02-24T13:43:54.716Z,99566.19
2023-02-24T13:49:26.207Z,99569.72
2023-02-24T13:55:03.270Z,99549.63
2023-02-24T14:00:11.511Z,99546.13
2023-02-24T14:05:22.254Z,99535.66
2023-02-24T14:10:29.032Z,99523.44
2023-02-24T14:15:31.524Z,99528.69
2023-02-24T14:20:35.143Z,99511.22
2023-02-24T14:25:39.435Z,99509.47
2023-02-24T14:30:42.021Z,99502.47
2023-02-24T14:35:47.846Z,99492.00
2023-02-24T14:40:51.373Z,99499.00
2023-02-24T14:45:54.512Z,99484.16
2023-02-24T14:51:03.083Z,99479.78
2023-02-24T14:56:07.320Z,99464.94
2023-02-24T15:01:20.271Z,99467.53
2023-02-24T15:06:25.223Z,99457.09
2023-02-24T15:11:31.227Z,99441.38
2023-02-24T15:16:38.844Z,99439.63
2023-02-24T15:21:41.855Z,99433.53
2023-02-24T15:26:52.774Z,99420.44
2023-02-24T15:31:56.603Z,99414.34
2023-02-24T15:37:01.991Z,99404.75
2023-02-24T15:42:10.211Z,99389.03
2023-02-24T15:47:22.133Z,99380.28
2023-02-24T15:52:26.892Z,99376.81
2023-02-24T15:57:31.986Z,99361.09
2023-02-24T16:02:34.124Z,99357.63
2023-02-24T16:07:38.372Z,99355.84
2023-02-24T16:12:47.997Z,99342.78
2023-02-24T16:18:14.509Z,99344.53
2023-02-24T16:23:16.660Z,99355.84
2023-02-24T16:28:21.857Z,99344.50
2023-02-24T16:33:24.410Z,99334.91
2023-02-24T16:38:27.221Z,99333.16
2023-02-24T16:43:30.635Z,99320.94
2023-02-24T16:48:35.226Z,99315.72
2023-02-24T16:53:37.363Z,99308.72
2023-02-24T16:58:41.081Z,99313.97
2023-02-24T17:03:45.712Z,99305.22
2023-02-24T17:08:47.790Z,99292.13
2023-02-24T17:13:51.192Z,99293.00
2023-02-24T17:18:53.560Z,99291.22
2023-02-24T17:23:55.679Z,99287.72
2023-02-24T17:28:59.095Z,99286.84
2023-02-24T17:34:01.401Z,99279.00
2023-02-24T17:39:03.766Z,99265.91
2023-02-24T17:44:23.610Z,99272.00
2023-02-24T17:55:29.897Z,99258.03
2023-02-24T18:00:40.883Z,99252.78
2023-02-24T18:05:42.691Z,99243.16
2023-02-24T18:10:45.396Z,99239.59
2023-02-24T18:15:49.325Z,99230.88
2023-02-24T18:20:51.585Z,99219.53
2023-02-24T18:25:54.429Z,99216.94
2023-02-24T18:30:58.733Z,99212.53
2023-02-24T18:36:02.173Z,99201.16
2023-02-24T18:41:07.470Z,99195.91
2023-02-24T18:46:13.550Z,99191.44
2023-02-24T18:51:18.485Z,99188.78
2023-02-24T18:56:23.076Z,99173.06
2023-02-24T19:01:30.677Z,99172.19
2023-02-24T19:06:34.145Z,99170.41
2023-02-24T19:11:37.108Z,99164.22
2023-02-24T19:16:41.528Z,99159.06
2023-02-24T19:21:44.406Z,99159.00
2023-02-24T19:26:46.462Z,99138.84
2023-02-24T19:31:50.109Z,99137.97
2023-02-24T19:36:51.956Z,99134.41
2023-02-24T19:41:54.286Z,99130.91
2023-02-24T19:46:57.832Z,99128.25
2023-02-24T19:52:00.339Z,99122.16
2023-02-24T19:57:02.967Z,99116.91
2023-02-24T20:02:06.996Z,99116.03
2023-02-24T20:07:09.257Z,99109.09
2023-02-24T20:12:11.837Z,99112.59
2023-02-24T20:17:15.278Z,99099.47
2023-02-24T20:22:17.589Z,99088.13
2023-02-24T20:27:32.214Z,99084.59
2023-02-24T20:32:35.659Z,99094.16
2023-02-24T20:37:37.475Z,99082.78
2023-02-24T20:42:40.018Z,99088.03
2023-02-24T20:47:43.206Z,99076.66
2023-02-24T20:52:45.195Z,99066.22
2023-02-24T20:57:46.923Z,99067.06
2023-02-24T21:02:50.357Z,99072.25
2023-02-24T21:07:53.513Z,99069.63
2023-02-24T21:12:55.606Z,99065.28
2023-02-24T21:17:59.337Z,99051.25
2023-02-24T21:23:01.161Z,99047.78
2023-02-24T21:28:03.072Z,99034.69
2023-02-24T21:33:06.529Z,99031.22
2023-02-24T21:38:09.177Z,99029.44
2023-02-24T21:43:11.527Z,99029.34
2023-02-24T21:48:15.267Z,99020.56
2023-02-24T21:53:17.297Z,99011.81
2023-02-24T21:58:20.349Z,99010.94
2023-02-24T22:03:24.939Z,99000.47
2023-02-24T22:08:51.286Z,99002.19
2023-02-24T22:13:53.558Z,98990.72
2023-02-24T22:18:56.969Z,98981.91
2023-02-24T22:24:01.630Z,98984.47
2023-02-24T22:29:03.990Z,98966.91
2023-02-24T22:34:07.587Z,98973.94
2023-02-24T22:39:10.067Z,98967.78
2023-02-24T22:44:12.538Z,98970.47
2023-02-24T22:49:16.374Z,98972.03
2023-02-24T22:54:19.074Z,98962.44
2023-02-24T22:59:21.063Z,98959.84
2023-02-24T23:04:24.541Z,98966.81
2023-02-24T23:09:26.775Z,98960.81
2023-02-24T23:14:29.272Z,98955.59
2023-02-24T23:19:32.888Z,98957.34
2023-02-24T23:24:34.953Z,98968.72
2023-02-24T23:29:37.119Z,98952.22
2023-02-24T23:34:40.782Z,98949.56
2023-02-24T23:39:42.964Z,98959.94
2023-02-24T23:44:45.531Z,98961.69
2023-02-24T23:49:48.973Z,98948.63
2023-02-24T23:54:50.991Z,98945.13
2023-02-24T23:59:53.046Z,98937.41
